Time;durP1;ratioP1;P1;durP2;ratioP2;P2;SDS_P1;SDS_P2;PMS_P1;PMS_P2;Temp;Humidity;BMP_temperature;BMP_pressure;BME280_temperature;BME280_humidity;BME280_pressure;Samples;Min_cycle;Max_cycle;Signal;HPM_P1;HPM_P2
2021/03/06 00:01:06;;;;;;;;;;;17.60;51.40;;;;;;4903847;29;20292;-85
2021/03/06 00:03:34;;;;;;;;;;;17.70;51.40;;;;;;4901302;29;19928;-81
2021/03/06 00:06:02;;;;;;;;;;;17.70;51.50;;;;;;4905520;29;19928;-82
2021/03/06 00:08:28;;;;;;;;;;;17.70;51.50;;;;;;4899892;29;19942;-82
2021/03/06 00:10:55;;;;;;;;;;;17.70;51.40;;;;;;4896603;29;19934;-82
2021/03/06 00:13:23;;;;;;;;;;;17.70;52.10;;;;;;4884429;29;19927;-82
2021/03/06 00:15:49;;;;;;;;;;;17.70;51.50;;;;;;4911146;29;19935;-82
2021/03/06 00:18:15;;;;;;;;;;;17.60;51.50;;;;;;4903601;29;19956;-82
2021/03/06 00:20:42;;;;;;;;;;;17.60;51.50;;;;;;4909062;29;19934;-80
2021/03/06 00:23:10;;;;;;;;;;;17.60;51.50;;;;;;4900234;29;19927;-81
2021/03/06 00:25:36;;;;;;;;;;;17.60;51.50;;;;;;4891432;29;19934;-82
2021/03/06 00:28:03;;;;;;;;;;;17.60;51.40;;;;;;4890996;29;19934;-81
2021/03/06 00:30:29;;;;;;;;;;;17.60;51.50;;;;;;4887936;29;19956;-82
2021/03/06 00:32:56;;;;;;;;;;;17.60;51.50;;;;;;4880789;29;21339;-82
2021/03/06 00:35:23;;;;;;;;;;;17.60;52.10;;;;;;4888929;29;19971;-82
2021/03/06 00:37:51;;;;;;;;;;;17.60;51.50;;;;;;4879537;29;20101;-82
2021/03/06 00:40:17;;;;;;;;;;;17.60;51.50;;;;;;4890829;29;20019;-81
2021/03/06 00:42:44;;;;;;;;;;;17.50;51.50;;;;;;4886169;29;19931;-82
2021/03/06 00:45:10;;;;;;;;;;;17.60;51.50;;;;;;4883495;29;19943;-81
2021/03/06 00:47:37;;;;;;;;;;;17.50;51.50;;;;;;4884419;29;19961;-81
2021/03/06 00:50:11;;;;;;;;;;;17.60;51.60;;;;;;4875545;29;19936;-81
2021/03/06 00:52:41;;;;;;;;;;;17.50;51.50;;;;;;4886404;29;19978;-81
2021/03/06 00:55:08;;;;;;;;;;;17.50;51.50;;;;;;4883004;29;19927;-81
2021/03/06 00:57:34;;;;;;;;;;;17.50;51.50;;;;;;4890855;29;19939;-82
2021/03/06 01:00:01;;;;;;;;;;;17.50;51.50;;;;;;4881398;29;19931;-82
2021/03/06 01:02:27;;;;;;;;;;;17.50;51.50;;;;;;4893212;29;20257;-82
2021/03/06 01:04:54;;;;;;;;;;;17.50;51.40;;;;;;4877774;29;19927;-82
2021/03/06 01:07:20;;;;;;;;;;;17.50;51.50;;;;;;4879388;29;19936;-82
2021/03/06 01:09:46;;;;;;;;;;;17.50;51.50;;;;;;4883150;29;19928;-82
2021/03/06 01:12:12;;;;;;;;;;;17.50;51.50;;;;;;4889210;29;19927;-82
2021/03/06 01:14:38;;;;;;;;;;;17.50;51.50;;;;;;4869678;29;19936;-82
2021/03/06 01:17:05;;;;;;;;;;;17.50;51.50;;;;;;4890769;29;20014;-82
2021/03/06 01:19:31;;;;;;;;;;;17.50;51.50;;;;;;4869567;29;19962;-81
2021/03/06 01:21:57;;;;;;;;;;;17.40;51.40;;;;;;4887320;29;19927;-81
2021/03/06 01:24:34;;;;;;;;;;;17.40;51.40;;;;;;4872007;29;19927;-82
2021/03/06 01:27:01;;;;;;;;;;;17.40;51.40;;;;;;4890134;29;19931;-82
2021/03/06 01:29:28;;;;;;;;;;;17.50;51.40;;;;;;4891558;29;19934;-82
2021/03/06 01:31:54;;;;;;;;;;;17.40;51.30;;;;;;4900788;29;20313;-82
2021/03/06 01:34:20;;;;;;;;;;;17.40;51.40;;;;;;4904413;29;19931;-82
2021/03/06 01:36:47;;;;;;;;;;;17.40;51.40;;;;;;4892494;29;19927;-82
2021/03/06 01:39:14;;;;;;;;;;;17.40;51.40;;;;;;4902551;29;19927;-82
2021/03/06 01:41:41;;;;;;;;;;;17.40;51.30;;;;;;4901475;29;19934;-82
2021/03/06 01:44:07;;;;;;;;;;;17.40;51.30;;;;;;4912601;29;20022;-81
2021/03/06 01:46:33;;;;;;;;;;;17.40;51.40;;;;;;4903311;29;20388;-81
2021/03/06 01:49:01;;;;;;;;;;;17.30;51.40;;;;;;4896181;29;20388;-81
2021/03/06 01:51:27;;;;;;;;;;;17.40;51.40;;;;;;4903645;29;20397;-81
2021/03/06 01:53:54;;;;;;;;;;;17.30;51.30;;;;;;4897856;29;20324;-81
2021/03/06 01:56:20;;;;;;;;;;;17.30;51.30;;;;;;4901540;29;20305;-81
2021/03/06 01:58:47;;;;;;;;;;;17.30;51.30;;;;;;4899979;29;19984;-80
2021/03/06 02:01:13;;;;;;;;;;;17.30;51.30;;;;;;4899335;29;19927;-81
2021/03/06 02:03:40;;;;;;;;;;;17.30;51.30;;;;;;4900767;29;19927;-82
2021/03/06 02:06:06;;;;;;;;;;;17.30;51.30;;;;;;4906790;29;19935;-82
2021/03/06 02:08:32;;;;;;;;;;;17.30;51.30;;;;;;4906414;29;19923;-82
2021/03/06 02:10:59;;;;;;;;;;;17.30;51.30;;;;;;4911353;29;19927;-82
2021/03/06 02:13:31;;;;;;;;;;;17.30;51.30;;;;;;4906633;29;20558;-81
2021/03/06 02:16:11;;;;;;;;;;;17.30;51.30;;;;;;4910485;29;20487;-82
2021/03/06 02:18:49;;;;;;;;;;;17.30;51.30;;;;;;4896964;29;20388;-82
2021/03/06 02:21:28;;;;;;;;;;;17.30;51.30;;;;;;4911095;29;19927;-82
2021/03/06 02:24:18;;;;;;;;;;;17.30;51.30;;;;;;4908362;29;20482;-81
2021/03/06 02:26:50;;;;;;;;;;;17.30;51.30;;;;;;4892151;29;20120;-81
2021/03/06 02:29:20;;;;;;;;;;;17.30;51.30;;;;;;4911868;29;19931;-81
2021/03/06 02:31:48;;;;;;;;;;;17.20;51.30;;;;;;4890924;29;19941;-82
2021/03/06 02:34:25;;;;;;;;;;;17.30;51.30;;;;;;4910112;29;19927;-81
2021/03/06 02:37:01;;;;;;;;;;;17.20;51.30;;;;;;4895541;29;19932;-81
2021/03/06 02:39:30;;;;;;;;;;;17.20;51.30;;;;;;4908251;29;20978;-81
2021/03/06 02:41:57;;;;;;;;;;;17.20;51.30;;;;;;4900957;29;21394;-81
2021/03/06 02:44:25;;;;;;;;;;;17.20;51.30;;;;;;4902823;29;19935;-81
2021/03/06 02:46:51;;;;;;;;;;;17.20;51.30;;;;;;4913199;29;19935;-82
2021/03/06 02:49:18;;;;;;;;;;;17.20;51.30;;;;;;4900488;29;19956;-82
2021/03/06 02:51:47;;;;;;;;;;;17.20;51.30;;;;;;4890273;29;19927;-82
2021/03/06 02:54:13;;;;;;;;;;;17.20;51.30;;;;;;4903475;29;19927;-82
2021/03/06 02:56:39;;;;;;;;;;;17.20;51.30;;;;;;4912800;29;19941;-81
2021/03/06 02:59:13;;;;;;;;;;;17.20;51.30;;;;;;4903141;29;19934;-81
2021/03/06 03:02:02;;;;;;;;;;;17.20;51.30;;;;;;4890019;29;20377;-82
2021/03/06 03:04:47;;;;;;;;;;;17.20;51.30;;;;;;4879404;29;20529;-82
2021/03/06 03:07:32;;;;;;;;;;;17.10;51.30;;;;;;4896534;29;20227;-82
2021/03/06 03:10:01;;;;;;;;;;;17.10;51.90;;;;;;4893953;29;20494;-82
2021/03/06 03:12:32;;;;;;;;;;;17.10;51.20;;;;;;4911911;29;19927;-82
2021/03/06 03:14:58;;;;;;;;;;;17.10;51.30;;;;;;4887455;29;19978;-82
2021/03/06 03:17:24;;;;;;;;;;;17.10;51.30;;;;;;4908780;29;19925;-82
2021/03/06 03:20:03;;;;;;;;;;;17.20;51.30;;;;;;4902900;29;20311;-82
2021/03/06 03:22:35;;;;;;;;;;;17.10;51.30;;;;;;4910864;29;19928;-82
2021/03/06 03:25:04;;;;;;;;;;;17.10;51.30;;;;;;4903617;29;19927;-82
2021/03/06 03:27:31;;;;;;;;;;;17.10;51.30;;;;;;4893576;29;20491;-81
2021/03/06 03:29:59;;;;;;;;;;;17.10;51.20;;;;;;4887910;29;19934;-81
2021/03/06 03:32:26;;;;;;;;;;;17.10;51.20;;;;;;4881810;29;19928;-80
2021/03/06 03:34:54;;;;;;;;;;;17.10;51.30;;;;;;4886289;29;20385;-81
2021/03/06 03:37:21;;;;;;;;;;;17.10;51.20;;;;;;4884446;29;19935;-81
2021/03/06 03:39:48;;;;;;;;;;;17.10;51.20;;;;;;4884119;29;19927;-81
2021/03/06 03:42:15;;;;;;;;;;;17.10;51.30;;;;;;4892367;29;20495;-81
2021/03/06 03:44:41;;;;;;;;;;;17.10;51.30;;;;;;4886414;29;19936;-81
2021/03/06 03:47:07;;;;;;;;;;;17.10;51.30;;;;;;4880900;29;20360;-81
2021/03/06 03:49:35;;;;;;;;;;;17.00;51.20;;;;;;4891096;29;19928;-82
2021/03/06 03:52:02;;;;;;;;;;;17.10;51.30;;;;;;4885179;29;20314;-82
2021/03/06 03:54:28;;;;;;;;;;;17.00;51.20;;;;;;4890769;29;19966;-81
2021/03/06 03:56:55;;;;;;;;;;;17.00;51.20;;;;;;4879539;29;20356;-81
2021/03/06 03:59:21;;;;;;;;;;;17.00;51.20;;;;;;4887749;29;19936;-80
2021/03/06 04:01:48;;;;;;;;;;;17.00;51.20;;;;;;4883993;29;20365;-82
2021/03/06 04:04:23;;;;;;;;;;;17.00;51.20;;;;;;4890433;29;19932;-81
2021/03/06 04:06:49;;;;;;;;;;;17.00;51.20;;;;;;4873242;29;19928;-81
2021/03/06 04:09:18;;;;;;;;;;;17.00;51.20;;;;;;4891739;29;19931;-81
2021/03/06 04:11:44;;;;;;;;;;;17.00;51.20;;;;;;4883702;29;20421;-81
2021/03/06 04:14:10;;;;;;;;;;;17.00;51.20;;;;;;4889328;29;19928;-81
2021/03/06 04:16:37;;;;;;;;;;;17.00;51.20;;;;;;4879579;29;19928;-82
2021/03/06 04:19:04;;;;;;;;;;;17.00;51.20;;;;;;4889509;29;19927;-81
2021/03/06 04:21:30;;;;;;;;;;;17.00;51.20;;;;;;4885069;29;19974;-82
2021/03/06 04:23:57;;;;;;;;;;;17.00;51.20;;;;;;4889268;29;21411;-82
2021/03/06 04:26:25;;;;;;;;;;;16.90;51.20;;;;;;4874989;29;20360;-81
2021/03/06 04:28:52;;;;;;;;;;;17.00;51.20;;;;;;4888787;29;19926;-81
2021/03/06 04:31:18;;;;;;;;;;;17.00;51.20;;;;;;4891552;29;19934;-81
2021/03/06 04:33:44;;;;;;;;;;;17.00;51.30;;;;;;4878717;29;19962;-80
2021/03/06 04:36:11;;;;;;;;;;;16.90;51.20;;;;;;4892899;29;19975;-80
2021/03/06 04:38:37;;;;;;;;;;;16.90;51.20;;;;;;4884421;29;19997;-82
2021/03/06 04:41:06;;;;;;;;;;;16.90;51.20;;;;;;4877875;29;19931;-80
2021/03/06 04:43:32;;;;;;;;;;;16.90;51.20;;;;;;4872089;29;19966;-80
2021/03/06 04:45:58;;;;;;;;;;;16.90;51.20;;;;;;4881505;29;19943;-80
2021/03/06 04:48:25;;;;;;;;;;;16.90;51.20;;;;;;4876150;29;19967;-82
2021/03/06 04:50:51;;;;;;;;;;;16.90;51.20;;;;;;4883643;29;19935;-80
2021/03/06 04:53:18;;;;;;;;;;;16.90;51.20;;;;;;4884327;29;19927;-80
2021/03/06 04:55:44;;;;;;;;;;;16.90;51.20;;;;;;4886004;29;19935;-80
2021/03/06 04:58:13;;;;;;;;;;;16.90;51.20;;;;;;4883643;29;19931;-81
2021/03/06 05:00:40;;;;;;;;;;;16.80;51.20;;;;;;4881468;29;19938;-79
2021/03/06 05:03:06;;;;;;;;;;;16.80;51.20;;;;;;4870531;29;19963;-80
2021/03/06 05:05:32;;;;;;;;;;;16.90;51.40;;;;;;4886796;29;19936;-79
2021/03/06 05:07:58;;;;;;;;;;;16.90;51.50;;;;;;4885124;29;19934;-80
2021/03/06 05:10:26;;;;;;;;;;;16.90;51.60;;;;;;4884562;29;19919;-80
2021/03/06 05:12:53;;;;;;;;;;;16.90;51.60;;;;;;4887439;29;20062;-80
2021/03/06 05:15:21;;;;;;;;;;;16.80;51.60;;;;;;4879919;29;19931;-80
2021/03/06 05:17:47;;;;;;;;;;;16.90;51.60;;;;;;4885859;29;19938;-81
2021/03/06 05:20:14;;;;;;;;;;;16.80;51.60;;;;;;4886494;29;19935;-80
2021/03/06 05:22:40;;;;;;;;;;;16.80;51.60;;;;;;4887225;29;19936;-79
2021/03/06 05:25:07;;;;;;;;;;;16.80;51.60;;;;;;4884438;29;19935;-80
2021/03/06 05:27:35;;;;;;;;;;;16.90;51.70;;;;;;4892688;29;20443;-80
2021/03/06 05:30:05;;;;;;;;;;;16.80;51.60;;;;;;4897450;29;19928;-79
2021/03/06 05:32:32;;;;;;;;;;;16.80;51.60;;;;;;4905385;29;19937;-80
2021/03/06 05:35:00;;;;;;;;;;;16.80;51.60;;;;;;4893169;29;19937;-80
2021/03/06 05:37:27;;;;;;;;;;;16.80;51.60;;;;;;4904868;29;20557;-79
2021/03/06 05:39:53;;;;;;;;;;;16.80;51.60;;;;;;4890098;29;19937;-79
2021/03/06 05:42:19;;;;;;;;;;;16.80;51.60;;;;;;4907279;29;21178;-79
2021/03/06 05:44:46;;;;;;;;;;;16.70;51.60;;;;;;4898881;29;19927;-80
2021/03/06 05:47:13;;;;;;;;;;;16.80;51.60;;;;;;4903268;29;19974;-81
2021/03/06 05:49:39;;;;;;;;;;;16.80;51.60;;;;;;4897867;29;19939;-80
2021/03/06 05:52:08;;;;;;;;;;;16.80;52.20;;;;;;4907755;29;19927;-80
2021/03/06 05:54:34;;;;;;;;;;;16.80;51.60;;;;;;4904863;29;19928;-80
2021/03/06 05:57:02;;;;;;;;;;;16.80;51.50;;;;;;4892650;29;20018;-82
2021/03/06 05:59:28;;;;;;;;;;;16.80;51.60;;;;;;4906968;29;19958;-80
2021/03/06 06:01:55;;;;;;;;;;;16.80;51.60;;;;;;4908524;29;19956;-81
2021/03/06 06:04:23;;;;;;;;;;;16.70;51.50;;;;;;4905134;29;19935;-80
2021/03/06 06:06:50;;;;;;;;;;;16.70;51.50;;;;;;4900897;29;19935;-80
2021/03/06 06:09:16;;;;;;;;;;;16.70;51.50;;;;;;4897282;29;20404;-82
2021/03/06 06:11:42;;;;;;;;;;;16.70;51.50;;;;;;4885508;29;19963;-81
2021/03/06 06:14:08;;;;;;;;;;;16.70;51.60;;;;;;4910579;29;19926;-81
2021/03/06 06:16:35;;;;;;;;;;;16.70;51.50;;;;;;4901743;29;20467;-81
2021/03/06 06:19:05;;;;;;;;;;;16.70;51.50;;;;;;4904608;29;19931;-81
2021/03/06 06:21:40;;;;;;;;;;;16.70;51.40;;;;;;4902550;29;19931;-81
2021/03/06 06:24:27;;;;;;;;;;;16.70;51.40;;;;;;4896391;29;20285;-80
2021/03/06 06:26:58;;;;;;;;;;;16.70;51.40;;;;;;4898084;29;19927;-81
2021/03/06 06:29:45;;;;;;;;;;;16.70;51.40;;;;;;4887926;29;20030;-80
2021/03/06 06:32:16;;;;;;;;;;;16.70;51.40;;;;;;4870649;29;21816;-81
2021/03/06 06:34:43;;;;;;;;;;;16.70;51.30;;;;;;4883691;29;20018;-81
2021/03/06 06:37:13;;;;;;;;;;;16.60;51.30;;;;;;4881942;29;20331;-81
2021/03/06 06:39:40;;;;;;;;;;;16.60;51.20;;;;;;4886062;29;19928;-81
2021/03/06 06:42:07;;;;;;;;;;;16.60;51.20;;;;;;4883992;29;20277;-81
2021/03/06 06:44:33;;;;;;;;;;;16.60;51.20;;;;;;4872334;29;19928;-81
2021/03/06 06:47:16;;;;;;;;;;;16.60;51.30;;;;;;4884782;29;20011;-81
2021/03/06 06:49:47;;;;;;;;;;;16.60;51.50;;;;;;4889818;29;19932;-81
2021/03/06 06:52:15;;;;;;;;;;;16.60;51.70;;;;;;4880977;29;19959;-81
2021/03/06 06:54:50;;;;;;;;;;;16.60;51.90;;;;;;4890022;29;19928;-81
2021/03/06 06:57:17;;;;;;;;;;;16.60;52.00;;;;;;4886180;29;19979;-81
2021/03/06 06:59:59;;;;;;;;;;;16.60;52.10;;;;;;4889476;29;20169;-81
2021/03/06 07:02:26;;;;;;;;;;;16.60;52.60;;;;;;4884848;29;19935;-81
2021/03/06 07:04:53;;;;;;;;;;;16.60;51.90;;;;;;4887693;29;19935;-81
2021/03/06 07:07:21;;;;;;;;;;;16.70;52.00;;;;;;4890380;29;19931;-81
2021/03/06 07:09:54;;;;;;;;;;;16.70;52.00;;;;;;4887367;29;20027;-81
2021/03/06 07:12:21;;;;;;;;;;;16.70;51.90;;;;;;4885105;29;19939;-81
2021/03/06 07:14:47;;;;;;;;;;;16.70;51.80;;;;;;4882622;29;19978;-81
2021/03/06 07:17:14;;;;;;;;;;;16.60;51.80;;;;;;4889726;29;19928;-80
2021/03/06 07:19:41;;;;;;;;;;;16.60;51.70;;;;;;4883175;29;20672;-81
2021/03/06 07:22:08;;;;;;;;;;;16.60;51.70;;;;;;4889657;29;19931;-80
2021/03/06 07:24:37;;;;;;;;;;;16.60;51.70;;;;;;4882279;29;19983;-80
2021/03/06 07:27:03;;;;;;;;;;;16.60;51.60;;;;;;4892183;29;19931;-80
2021/03/06 07:29:29;;;;;;;;;;;16.60;51.60;;;;;;4898662;29;20214;-83
2021/03/06 07:31:57;;;;;;;;;;;16.60;51.60;;;;;;4891790;29;19927;-80
2021/03/06 07:34:24;;;;;;;;;;;16.60;51.60;;;;;;4885089;29;20006;-81
2021/03/06 07:36:53;;;;;;;;;;;16.60;51.50;;;;;;4889483;29;21306;-81
2021/03/06 07:39:20;;;;;;;;;;;16.60;51.50;;;;;;4882997;29;19931;-81
2021/03/06 07:41:48;;;;;;;;;;;16.60;51.50;;;;;;4890685;29;19927;-80
2021/03/06 07:44:17;;;;;;;;;;;16.50;51.40;;;;;;4886781;29;19957;-81
2021/03/06 07:46:44;;;;;;;;;;;16.60;51.30;;;;;;4892560;29;19928;-81
2021/03/06 07:49:12;;;;;;;;;;;16.60;51.10;;;;;;4888058;29;19927;-80
2021/03/06 07:51:43;;;;;;;;;;;16.60;51.10;;;;;;4890783;29;19928;-80
2021/03/06 07:54:11;;;;;;;;;;;16.60;51.00;;;;;;4888202;29;19941;-80
2021/03/06 07:56:38;;;;;;;;;;;16.50;50.80;;;;;;4885409;29;19932;-80
2021/03/06 07:59:40;;;;;;;;;;;16.60;50.90;;;;;;4893332;29;19928;-80
2021/03/06 08:02:24;;;;;;;;;;;16.60;50.80;;;;;;4890566;29;20428;-80
2021/03/06 08:04:51;;;;;;;;;;;16.50;50.60;;;;;;4886950;29;20683;-81
2021/03/06 08:07:18;;;;;;;;;;;16.60;50.60;;;;;;4890821;29;19935;-83
2021/03/06 08:10:00;;;;;;;;;;;16.60;50.60;;;;;;4895215;29;19927;-84
2021/03/06 08:12:30;;;;;;;;;;;16.50;50.60;;;;;;4896352;29;19928;-87
2021/03/06 08:14:56;;;;;;;;;;;16.50;50.50;;;;;;4906964;29;19939;-89
2021/03/06 08:17:33;;;;;;;;;;;16.50;50.50;;;;;;4889501;29;20389;-87
2021/03/06 08:20:00;;;;;;;;;;;16.50;50.40;;;;;;4904769;29;20034;-84
2021/03/06 08:22:26;;;;;;;;;;;16.50;50.40;;;;;;4890010;29;19935;-85
2021/03/06 08:24:52;;;;;;;;;;;16.50;50.40;;;;;;4891026;29;19936;-83
2021/03/06 08:27:19;;;;;;;;;;;16.50;50.50;;;;;;4886367;29;20500;-79
2021/03/06 08:29:53;;;;;;;;;;;16.60;50.40;;;;;;4890312;29;20411;-81
2021/03/06 08:32:30;;;;;;;;;;;16.60;50.30;;;;;;4879444;29;20655;-81
2021/03/06 08:35:00;;;;;;;;;;;16.50;50.20;;;;;;4881245;29;20336;-81
2021/03/06 08:37:27;;;;;;;;;;;16.50;50.30;;;;;;4886560;29;19927;-82
2021/03/06 08:39:57;;;;;;;;;;;16.60;50.50;;;;;;4886184;29;20081;-81
2021/03/06 08:42:34;;;;;;;;;;;16.50;50.80;;;;;;4883954;29;20245;-82
2021/03/06 08:45:03;;;;;;;;;;;16.50;50.40;;;;;;4878734;29;20353;-81
2021/03/06 08:47:34;;;;;;;;;;;16.50;50.40;;;;;;4882299;29;20023;-82
2021/03/06 08:50:04;;;;;;;;;;;16.60;50.50;;;;;;4881565;29;19993;-81
2021/03/06 08:52:30;;;;;;;;;;;16.60;50.50;;;;;;4884178;29;20240;-82
2021/03/06 08:54:57;;;;;;;;;;;16.50;50.40;;;;;;4884617;29;19927;-82
2021/03/06 08:57:24;;;;;;;;;;;16.60;50.40;;;;;;4881766;29;19957;-84
2021/03/06 09:00:07;;;;;;;;;;;16.60;50.60;;;;;;4882372;29;19932;-84
2021/03/06 09:02:34;;;;;;;;;;;16.60;50.50;;;;;;4883003;29;19927;-85
2021/03/06 09:05:02;;;;;;;;;;;16.60;50.50;;;;;;4886859;29;19934;-84
2021/03/06 09:07:29;;;;;;;;;;;16.60;50.50;;;;;;4883639;29;20315;-84
2021/03/06 09:09:56;;;;;;;;;;;16.60;50.50;;;;;;4887117;29;19927;-84
2021/03/06 09:12:22;;;;;;;;;;;16.60;50.50;;;;;;4860916;29;20448;-83
2021/03/06 09:14:51;;;;;;;;;;;16.60;50.50;;;;;;4885877;29;19922;-82
2021/03/06 09:17:20;;;;;;;;;;;16.60;50.60;;;;;;4889520;29;19931;-83
2021/03/06 09:19:47;;;;;;;;;;;16.60;51.00;;;;;;4884598;29;20133;-81
2021/03/06 09:22:13;;;;;;;;;;;16.60;51.10;;;;;;4889695;29;19928;-87
2021/03/06 09:24:43;;;;;;;;;;;16.60;51.50;;;;;;4883397;29;19928;-86
2021/03/06 09:27:09;;;;;;;;;;;16.60;51.10;;;;;;4893179;29;19932;-90
2021/03/06 09:29:36;;;;;;;;;;;16.60;51.00;;;;;;4885537;29;19939;-84
2021/03/06 09:32:03;;;;;;;;;;;16.60;50.90;;;;;;4891273;29;19966;-86
2021/03/06 09:34:29;;;;;;;;;;;16.60;50.90;;;;;;4886249;29;19958;-84
2021/03/06 09:36:55;;;;;;;;;;;16.60;51.20;;;;;;4886636;29;19920;-85
2021/03/06 09:39:23;;;;;;;;;;;16.70;52.20;;;;;;4880888;29;19935;-86
2021/03/06 09:41:49;;;;;;;;;;;16.70;52.90;;;;;;4874305;29;19927;-89
2021/03/06 09:44:17;;;;;;;;;;;16.80;53.00;;;;;;4877594;29;19946;-86
2021/03/06 09:46:44;;;;;;;;;;;16.80;53.10;;;;;;4877356;29;19928;-87
2021/03/06 09:49:11;;;;;;;;;;;16.80;52.90;;;;;;4886904;29;19935;-84
2021/03/06 09:51:45;;;;;;;;;;;16.80;53.30;;;;;;4889875;29;19927;-87
2021/03/06 09:54:17;;;;;;;;;;;16.90;53.30;;;;;;4865067;29;20308;-84
2021/03/06 09:56:44;;;;;;;;;;;16.90;53.20;;;;;;4888180;29;19928;-84
2021/03/06 09:59:11;;;;;;;;;;;16.90;52.70;;;;;;4877803;29;19931;-83
2021/03/06 10:01:37;;;;;;;;;;;16.90;52.50;;;;;;4885902;29;19943;-84
2021/03/06 10:04:08;;;;;;;;;;;16.90;52.20;;;;;;4885508;29;20254;-82
2021/03/06 10:06:36;;;;;;;;;;;16.90;52.10;;;;;;4881933;29;19928;-83
2021/03/06 10:09:06;;;;;;;;;;;16.90;51.90;;;;;;4886186;29;19983;-83
2021/03/06 10:11:37;;;;;;;;;;;16.90;51.80;;;;;;4882221;29;20045;-88
2021/03/06 10:14:04;;;;;;;;;;;16.90;51.60;;;;;;4873024;29;19931;-85
2021/03/06 10:16:44;;;;;;;;;;;17.00;51.70;;;;;;4884468;29;19927;-85
2021/03/06 10:19:10;;;;;;;;;;;16.90;51.50;;;;;;4875552;29;20385;-86
2021/03/06 10:21:37;;;;;;;;;;;17.00;51.50;;;;;;4885290;29;19942;-86
2021/03/06 10:24:06;;;;;;;;;;;16.90;51.30;;;;;;4878079;29;19927;-85
2021/03/06 10:26:33;;;;;;;;;;;17.00;51.30;;;;;;4889260;29;19978;-85
2021/03/06 10:29:19;;;;;;;;;;;17.00;51.30;;;;;;4896501;29;19943;-86
2021/03/06 10:31:45;;;;;;;;;;;17.00;51.10;;;;;;4876194;29;19934;-82
2021/03/06 10:34:22;;;;;;;;;;;17.00;51.10;;;;;;4893106;29;19935;-83
2021/03/06 10:37:07;;;;;;;;;;;17.00;51.10;;;;;;4889435;29;19935;-83
2021/03/06 10:39:50;;;;;;;;;;;17.00;51.00;;;;;;4899673;29;19928;-84
2021/03/06 10:42:18;;;;;;;;;;;17.00;51.80;;;;;;4882963;29;19938;-85
2021/03/06 10:44:44;;;;;;;;;;;17.10;52.40;;;;;;4881123;29;19935;-88
2021/03/06 10:47:10;;;;;;;;;;;17.10;53.00;;;;;;4872266;29;20001;-87
2021/03/06 10:49:41;;;;;;;;;;;17.10;52.80;;;;;;4876221;29;19935;-86
2021/03/06 10:52:21;;;;;;;;;;;17.10;52.60;;;;;;4891749;29;19927;-87
2021/03/06 10:54:48;;;;;;;;;;;17.10;52.30;;;;;;4894520;29;19932;-86
2021/03/06 10:57:15;;;;;;;;;;;17.10;52.20;;;;;;4873981;29;19939;-86
2021/03/06 10:59:41;;;;;;;;;;;17.10;52.20;;;;;;4890720;29;19935;-86
2021/03/06 11:02:08;;;;;;;;;;;17.10;52.10;;;;;;4889206;29;20377;-87
2021/03/06 11:04:35;;;;;;;;;;;17.10;52.10;;;;;;4881658;29;20629;-85
2021/03/06 11:07:05;;;;;;;;;;;17.10;52.10;;;;;;4890980;29;20019;-85
2021/03/06 11:09:38;;;;;;;;;;;17.20;52.20;;;;;;4880876;29;20593;-87
2021/03/06 11:12:15;;;;;;;;;;;17.20;52.10;;;;;;4890254;29;19928;-85
2021/03/06 11:14:41;;;;;;;;;;;17.20;52.20;;;;;;4896045;29;19959;-85
2021/03/06 11:17:07;;;;;;;;;;;17.20;52.10;;;;;;4878455;29;19928;-85
2021/03/06 11:19:34;;;;;;;;;;;17.30;52.30;;;;;;4893573;29;20638;-86
2021/03/06 11:22:00;;;;;;;;;;;17.30;52.10;;;;;;4882162;29;19938;-89
2021/03/06 11:24:26;;;;;;;;;;;17.40;52.20;;;;;;4873474;29;19934;-88
2021/03/06 11:26:52;;;;;;;;;;;17.50;52.60;;;;;;4879420;29;20461;-85
2021/03/06 11:29:19;;;;;;;;;;;17.40;52.70;;;;;;4904830;29;19930;-85
2021/03/06 11:31:54;;;;;;;;;;;17.50;52.80;;;;;;4908952;29;19935;-84
2021/03/06 11:34:24;;;;;;;;;;;17.60;52.80;;;;;;4904624;29;19931;-85
2021/03/06 11:36:52;;;;;;;;;;;17.70;52.80;;;;;;4900865;29;19935;-84
2021/03/06 11:39:18;;;;;;;;;;;17.70;53.10;;;;;;4903265;29;19966;-83
2021/03/06 11:41:46;;;;;;;;;;;17.70;53.40;;;;;;4900155;29;19930;-83
2021/03/06 11:44:22;;;;;;;;;;;17.70;53.30;;;;;;4907119;29;19911;-86
2021/03/06 11:46:50;;;;;;;;;;;17.80;53.40;;;;;;4890916;29;20010;-82
2021/03/06 11:49:16;;;;;;;;;;;17.80;53.30;;;;;;4906566;29;19927;-84
2021/03/06 11:51:43;;;;;;;;;;;17.80;53.50;;;;;;4907620;29;19935;-86
2021/03/06 11:54:09;;;;;;;;;;;17.80;53.40;;;;;;4906416;29;19928;-85
2021/03/06 11:56:35;;;;;;;;;;;17.90;53.80;;;;;;4888487;29;19928;-84
2021/03/06 11:59:02;;;;;;;;;;;17.90;53.40;;;;;;4885451;29;19935;-84
2021/03/06 12:01:29;;;;;;;;;;;17.90;53.40;;;;;;4904533;29;20174;-84
2021/03/06 12:03:57;;;;;;;;;;;18.00;53.40;;;;;;4904731;29;19937;-83
2021/03/06 12:06:23;;;;;;;;;;;17.90;53.30;;;;;;4899781;29;19927;-84
2021/03/06 12:08:51;;;;;;;;;;;18.00;53.60;;;;;;4909786;29;19977;-83
2021/03/06 12:11:18;;;;;;;;;;;18.10;53.40;;;;;;4904232;29;19931;-84
2021/03/06 12:13:44;;;;;;;;;;;18.00;53.40;;;;;;4911813;29;19927;-84
2021/03/06 12:16:11;;;;;;;;;;;18.10;53.30;;;;;;4889034;29;20034;-84
2021/03/06 12:18:37;;;;;;;;;;;18.10;53.60;;;;;;4898219;29;19993;-84
2021/03/06 12:21:04;;;;;;;;;;;18.10;53.20;;;;;;4906035;29;20784;-85
2021/03/06 12:23:30;;;;;;;;;;;18.20;53.40;;;;;;4901927;29;20435;-86
2021/03/06 12:25:57;;;;;;;;;;;18.20;53.30;;;;;;4907115;29;20034;-84
2021/03/06 12:28:23;;;;;;;;;;;18.20;53.30;;;;;;4900993;29;19927;-85
2021/03/06 12:30:50;;;;;;;;;;;18.30;53.70;;;;;;4873288;29;19927;-86
2021/03/06 12:33:16;;;;;;;;;;;18.30;54.40;;;;;;4876302;29;20297;-85
2021/03/06 12:35:43;;;;;;;;;;;18.40;55.60;;;;;;4865597;29;19934;-86
2021/03/06 12:38:14;;;;;;;;;;;18.30;55.30;;;;;;4882355;29;20381;-86
2021/03/06 12:40:42;;;;;;;;;;;18.40;56.80;;;;;;4884917;29;19935;-85
2021/03/06 12:43:08;;;;;;;;;;;18.40;56.60;;;;;;4878458;29;19931;-84
2021/03/06 12:45:34;;;;;;;;;;;18.40;56.90;;;;;;4884295;29;19936;-83
2021/03/06 12:48:01;;;;;;;;;;;18.40;57.10;;;;;;4888490;29;20023;-84
2021/03/06 12:50:27;;;;;;;;;;;18.40;57.30;;;;;;4885803;29;19932;-83
2021/03/06 12:52:54;;;;;;;;;;;18.40;57.50;;;;;;4865242;29;19932;-84
2021/03/06 12:55:20;;;;;;;;;;;18.50;57.30;;;;;;4890811;29;19927;-84
2021/03/06 12:57:46;;;;;;;;;;;18.50;57.70;;;;;;4885301;29;20573;-84
2021/03/06 13:00:17;;;;;;;;;;;18.50;57.90;;;;;;4887718;29;19928;-84
2021/03/06 13:02:55;;;;;;;;;;;18.50;57.90;;;;;;4871061;29;19943;-84
2021/03/06 13:05:22;;;;;;;;;;;18.50;57.90;;;;;;4890839;29;20330;-84
2021/03/06 13:07:48;;;;;;;;;;;18.60;58.10;;;;;;4883075;29;19938;-85
2021/03/06 13:10:14;;;;;;;;;;;18.60;58.20;;;;;;4888494;29;19973;-84
2021/03/06 13:12:41;;;;;;;;;;;18.60;58.30;;;;;;4885821;29;19935;-84
2021/03/06 13:15:08;;;;;;;;;;;18.70;58.40;;;;;;4882673;29;20226;-82
2021/03/06 13:17:34;;;;;;;;;;;18.60;58.50;;;;;;4882904;29;19942;-84
2021/03/06 13:20:01;;;;;;;;;;;18.60;58.40;;;;;;4889694;29;19984;-84
2021/03/06 13:22:27;;;;;;;;;;;18.70;58.60;;;;;;4883764;29;20145;-84
2021/03/06 13:24:53;;;;;;;;;;;18.70;58.60;;;;;;4891474;29;19931;-83
2021/03/06 13:27:20;;;;;;;;;;;18.70;58.70;;;;;;4883501;29;20021;-83
2021/03/06 13:29:46;;;;;;;;;;;18.70;58.40;;;;;;4875524;29;19931;-84
2021/03/06 13:32:12;;;;;;;;;;;18.80;58.60;;;;;;4891349;29;20389;-84
2021/03/06 13:34:41;;;;;;;;;;;18.80;58.60;;;;;;4881900;29;19934;-83
2021/03/06 13:37:07;;;;;;;;;;;18.80;59.10;;;;;;4891179;29;20335;-86
2021/03/06 13:39:33;;;;;;;;;;;18.70;58.10;;;;;;4872463;29;20304;-81
2021/03/06 13:42:00;;;;;;;;;;;18.60;57.80;;;;;;4892692;29;20477;-82
2021/03/06 13:44:26;;;;;;;;;;;18.60;57.70;;;;;;4884712;29;19928;-90
2021/03/06 13:46:52;;;;;;;;;;;18.70;58.20;;;;;;4877345;29;20234;-88
2021/03/06 13:49:19;;;;;;;;;;;18.70;58.10;;;;;;4883660;29;19963;-87
2021/03/06 13:51:46;;;;;;;;;;;18.70;57.40;;;;;;4887555;29;19928;-87
2021/03/06 13:54:12;;;;;;;;;;;18.60;57.00;;;;;;4875697;29;19927;-88
2021/03/06 13:56:38;;;;;;;;;;;18.60;56.80;;;;;;4857794;29;19934;-87
2021/03/06 13:59:05;;;;;;;;;;;18.60;56.60;;;;;;4888637;29;20026;-88
2021/03/06 14:01:33;;;;;;;;;;;18.60;56.20;;;;;;4890543;29;19942;-87
2021/03/06 14:04:00;;;;;;;;;;;18.60;56.00;;;;;;4891278;29;20469;-87
2021/03/06 14:06:27;;;;;;;;;;;18.60;55.90;;;;;;4881593;29;19927;-87
2021/03/06 14:08:53;;;;;;;;;;;18.60;56.70;;;;;;4880813;29;19935;-88
2021/03/06 14:11:19;;;;;;;;;;;18.60;55.70;;;;;;4891246;29;19987;-90
2021/03/06 14:13:46;;;;;;;;;;;18.50;55.80;;;;;;4881283;29;19927;-90
2021/03/06 14:16:12;;;;;;;;;;;18.60;55.80;;;;;;4875476;29;20287;-90
2021/03/06 14:18:41;;;;;;;;;;;18.60;55.70;;;;;;4881489;29;19927;-91
2021/03/06 14:21:08;;;;;;;;;;;18.50;55.90;;;;;;4877972;29;19936;-90
2021/03/06 14:23:34;;;;;;;;;;;18.60;55.80;;;;;;4881056;29;20680;-90